sensor_id;sensor_type;location;lat;lon;timestamp;temperature;humidity
16999;DHT22;10211;49.476;11.010;2023-05-10T00:00:55;15.80;99.90
16999;DHT22;10211;49.476;11.010;2023-05-10T00:03:22;15.80;99.90
16999;DHT22;10211;49.476;11.010;2023-05-10T00:05:49;15.80;99.90
16999;DHT22;10211;49.476;11.010;2023-05-10T00:08:15;15.80;99.90
16999;DHT22;10211;49.476;11.010;2023-05-10T00:10:42;15.80;99.90
16999;DHT22;10211;49.476;11.010;2023-05-10T00:13:09;15.70;99.90
16999;DHT22;10211;49.476;11.010;2023-05-10T00:15:37;15.70;99.90
16999;DHT22;10211;49.476;11.010;2023-05-10T00:18:03;15.70;99.90
16999;DHT22;10211;49.476;11.010;2023-05-10T00:20:30;15.60;99.90
16999;DHT22;10211;49.476;11.010;2023-05-10T00:22:57;15.60;99.90
16999;DHT22;10211;49.476;11.010;2023-05-10T00:25:24;15.50;99.90
16999;DHT22;10211;49.476;11.010;2023-05-10T00:27:51;15.40;99.90
16999;DHT22;10211;49.476;11.010;2023-05-10T00:30:19;15.30;99.90
16999;DHT22;10211;49.476;11.010;2023-05-10T00:32:47;15.20;99.90
16999;DHT22;10211;49.476;11.010;2023-05-10T00:35:15;15.10;99.90
16999;DHT22;10211;49.476;11.010;2023-05-10T00:37:42;15.00;99.90
16999;DHT22;10211;49.476;11.010;2023-05-10T00:40:09;14.90;99.90
16999;DHT22;10211;49.476;11.010;2023-05-10T00:42:36;14.90;99.90
16999;DHT22;10211;49.476;11.010;2023-05-10T00:45:03;14.80;99.90
16999;DHT22;10211;49.476;11.010;2023-05-10T00:47:30;14.80;99.90
16999;DHT22;10211;49.476;11.010;2023-05-10T00:49:59;14.80;99.90
16999;DHT22;10211;49.476;11.010;2023-05-10T00:52:26;14.70;99.90
16999;DHT22;10211;49.476;11.010;2023-05-10T00:54:54;14.70;99.90
16999;DHT22;10211;49.476;11.010;2023-05-10T00:57:21;14.60;99.90
16999;DHT22;10211;49.476;11.010;2023-05-10T00:59:48;14.60;99.90
16999;DHT22;10211;49.476;11.010;2023-05-10T01:02:15;14.60;99.90
16999;DHT22;10211;49.476;11.010;2023-05-10T01:04:43;14.60;99.90
16999;DHT22;10211;49.476;11.010;2023-05-10T01:07:11;14.50;99.90
16999;DHT22;10211;49.476;11.010;2023-05-10T01:09:37;14.50;99.90
16999;DHT22;10211;49.476;11.010;2023-05-10T01:12:05;14.60;99.90
16999;DHT22;10211;49.476;11.010;2023-05-10T01:14:33;14.60;99.90
16999;DHT22;10211;49.476;11.010;2023-05-10T01:17:01;14.60;99.90
16999;DHT22;10211;49.476;11.010;2023-05-10T01:19:29;14.50;99.90
16999;DHT22;10211;49.476;11.010;2023-05-10T01:22:06;14.50;99.90
16999;DHT22;10211;49.476;11.010;2023-05-10T01:28:13;14.50;99.90
16999;DHT22;10211;49.476;11.010;2023-05-10T01:31:06;14.40;99.90
16999;DHT22;10211;49.476;11.010;2023-05-10T01:33:40;14.40;99.90
16999;DHT22;10211;49.476;11.010;2023-05-10T01:36:14;14.40;99.90
16999;DHT22;10211;49.476;11.010;2023-05-10T01:38:49;14.30;99.90
16999;DHT22;10211;49.476;11.010;2023-05-10T01:41:19;14.30;99.90
16999;DHT22;10211;49.476;11.010;2023-05-10T01:43:53;14.40;99.90
16999;DHT22;10211;49.476;11.010;2023-05-10T01:46:28;14.30;99.90
16999;DHT22;10211;49.476;11.010;2023-05-10T01:48:59;14.20;99.90
16999;DHT22;10211;49.476;11.010;2023-05-10T01:51:31;14.20;99.90
16999;DHT22;10211;49.476;11.010;2023-05-10T01:54:02;14.20;99.90
16999;DHT22;10211;49.476;11.010;2023-05-10T01:56:31;14.20;99.90
16999;DHT22;10211;49.476;11.010;2023-05-10T01:59:00;14.10;99.90
16999;DHT22;10211;49.476;11.010;2023-05-10T02:01:27;14.10;99.90
16999;DHT22;10211;49.476;11.010;2023-05-10T02:03:55;14.10;99.90
16999;DHT22;10211;49.476;11.010;2023-05-10T02:06:24;14.10;99.90
16999;DHT22;10211;49.476;11.010;2023-05-10T02:08:53;14.10;99.90
16999;DHT22;10211;49.476;11.010;2023-05-10T02:11:21;14.10;99.90
16999;DHT22;10211;49.476;11.010;2023-05-10T02:13:50;14.10;99.90
16999;DHT22;10211;49.476;11.010;2023-05-10T02:16:18;14.10;99.90
16999;DHT22;10211;49.476;11.010;2023-05-10T02:18:50;14.20;99.90
16999;DHT22;10211;49.476;11.010;2023-05-10T02:21:19;14.10;99.90
16999;DHT22;10211;49.476;11.010;2023-05-10T02:23:48;14.10;99.90
16999;DHT22;10211;49.476;11.010;2023-05-10T02:26:17;14.10;99.90
16999;DHT22;10211;49.476;11.010;2023-05-10T02:28:45;14.10;99.90
16999;DHT22;10211;49.476;11.010;2023-05-10T02:31:14;14.10;99.90
16999;DHT22;10211;49.476;11.010;2023-05-10T02:33:41;14.10;99.90
16999;DHT22;10211;49.476;11.010;2023-05-10T02:36:09;14.20;99.90
16999;DHT22;10211;49.476;11.010;2023-05-10T02:38:37;14.10;99.90
16999;DHT22;10211;49.476;11.010;2023-05-10T02:41:05;14.10;99.90
16999;DHT22;10211;49.476;11.010;2023-05-10T02:43:35;14.00;99.90
16999;DHT22;10211;49.476;11.010;2023-05-10T02:46:03;14.00;99.90
16999;DHT22;10211;49.476;11.010;2023-05-10T02:48:30;13.90;99.90
16999;DHT22;10211;49.476;11.010;2023-05-10T02:51:00;14.30;99.90
16999;DHT22;10211;49.476;11.010;2023-05-10T02:53:32;13.90;99.90
16999;DHT22;10211;49.476;11.010;2023-05-10T02:56:01;14.00;99.90
16999;DHT22;10211;49.476;11.010;2023-05-10T02:58:34;14.00;99.90
16999;DHT22;10211;49.476;11.010;2023-05-10T03:01:01;13.90;99.90
16999;DHT22;10211;49.476;11.010;2023-05-10T03:03:28;13.80;99.90
16999;DHT22;10211;49.476;11.010;2023-05-10T03:05:54;13.80;99.90
16999;DHT22;10211;49.476;11.010;2023-05-10T03:08:22;13.80;99.90
16999;DHT22;10211;49.476;11.010;2023-05-10T03:10:57;13.90;99.90
16999;DHT22;10211;49.476;11.010;2023-05-10T03:13:28;13.80;99.90
16999;DHT22;10211;49.476;11.010;2023-05-10T03:15:59;13.80;99.90
16999;DHT22;10211;49.476;11.010;2023-05-10T03:18:37;13.80;99.90
16999;DHT22;10211;49.476;11.010;2023-05-10T03:21:06;13.80;99.90
16999;DHT22;10211;49.476;11.010;2023-05-10T03:23:40;13.80;99.90
16999;DHT22;10211;49.476;11.010;2023-05-10T03:26:07;13.70;99.90
16999;DHT22;10211;49.476;11.010;2023-05-10T03:28:35;13.80;99.90
16999;DHT22;10211;49.476;11.010;2023-05-10T03:31:04;13.70;99.90
16999;DHT22;10211;49.476;11.010;2023-05-10T03:33:32;13.70;99.90
16999;DHT22;10211;49.476;11.010;2023-05-10T03:35:58;13.70;99.90
16999;DHT22;10211;49.476;11.010;2023-05-10T03:38:25;13.60;99.90
16999;DHT22;10211;49.476;11.010;2023-05-10T03:40:52;13.60;99.90
16999;DHT22;10211;49.476;11.010;2023-05-10T03:43:19;13.60;99.90
16999;DHT22;10211;49.476;11.010;2023-05-10T03:45:45;13.60;99.90
16999;DHT22;10211;49.476;11.010;2023-05-10T03:48:13;13.60;99.90
16999;DHT22;10211;49.476;11.010;2023-05-10T03:50:40;13.50;99.90
16999;DHT22;10211;49.476;11.010;2023-05-10T03:53:08;13.50;99.90
16999;DHT22;10211;49.476;11.010;2023-05-10T03:55:34;13.50;99.90
16999;DHT22;10211;49.476;11.010;2023-05-10T03:58:01;13.40;99.90
16999;DHT22;10211;49.476;11.010;2023-05-10T04:00:28;13.40;99.90
16999;DHT22;10211;49.476;11.010;2023-05-10T04:02:55;13.40;99.90
16999;DHT22;10211;49.476;11.010;2023-05-10T04:05:23;13.40;99.90
16999;DHT22;10211;49.476;11.010;2023-05-10T04:07:50;13.40;99.90
16999;DHT22;10211;49.476;11.010;2023-05-10T04:10:17;13.40;99.90
16999;DHT22;10211;49.476;11.010;2023-05-10T04:12:43;13.50;99.90
16999;DHT22;10211;49.476;11.010;2023-05-10T04:15:10;13.50;99.90
16999;DHT22;10211;49.476;11.010;2023-05-10T04:17:37;13.50;99.90
16999;DHT22;10211;49.476;11.010;2023-05-10T04:20:05;13.50;99.90
16999;DHT22;10211;49.476;11.010;2023-05-10T04:22:33;13.50;99.90
16999;DHT22;10211;49.476;11.010;2023-05-10T04:25:00;13.50;99.90
16999;DHT22;10211;49.476;11.010;2023-05-10T04:27:26;13.50;99.90
16999;DHT22;10211;49.476;11.010;2023-05-10T04:29:53;13.50;99.90
16999;DHT22;10211;49.476;11.010;2023-05-10T04:32:20;13.70;99.90
16999;DHT22;10211;49.476;11.010;2023-05-10T04:34:47;13.50;99.90
16999;DHT22;10211;49.476;11.010;2023-05-10T04:37:13;13.50;99.90
16999;DHT22;10211;49.476;11.010;2023-05-10T04:39:41;13.50;99.90
16999;DHT22;10211;49.476;11.010;2023-05-10T04:42:08;13.50;99.90
16999;DHT22;10211;49.476;11.010;2023-05-10T04:44:35;13.40;99.90
16999;DHT22;10211;49.476;11.010;2023-05-10T04:47:02;13.50;99.90
16999;DHT22;10211;49.476;11.010;2023-05-10T04:49:29;13.40;99.90
16999;DHT22;10211;49.476;11.010;2023-05-10T04:51:56;13.40;99.90
16999;DHT22;10211;49.476;11.010;2023-05-10T04:54:23;13.50;99.90
16999;DHT22;10211;49.476;11.010;2023-05-10T04:56:51;13.40;99.90
16999;DHT22;10211;49.476;11.010;2023-05-10T04:59:17;13.40;99.90
16999;DHT22;10211;49.476;11.010;2023-05-10T05:01:44;13.40;99.90
16999;DHT22;10211;49.476;11.010;2023-05-10T05:04:11;13.40;99.90
16999;DHT22;10211;49.476;11.010;2023-05-10T05:06:37;13.50;99.90
16999;DHT22;10211;49.476;11.010;2023-05-10T05:09:04;13.60;99.90
16999;DHT22;10211;49.476;11.010;2023-05-10T05:11:31;13.60;99.90
16999;DHT22;10211;49.476;11.010;2023-05-10T05:13:59;13.70;99.90
16999;DHT22;10211;49.476;11.010;2023-05-10T05:16:25;13.70;99.90
16999;DHT22;10211;49.476;11.010;2023-05-10T05:18:52;13.80;99.90
16999;DHT22;10211;49.476;11.010;2023-05-10T05:21:19;13.80;99.90
16999;DHT22;10211;49.476;11.010;2023-05-10T05:23:46;13.80;99.90
16999;DHT22;10211;49.476;11.010;2023-05-10T05:26:13;13.80;99.90
16999;DHT22;10211;49.476;11.010;2023-05-10T05:28:40;13.80;99.90
16999;DHT22;10211;49.476;11.010;2023-05-10T05:31:08;13.80;99.90
16999;DHT22;10211;49.476;11.010;2023-05-10T05:33:35;13.80;99.90
16999;DHT22;10211;49.476;11.010;2023-05-10T05:36:02;13.80;99.90
16999;DHT22;10211;49.476;11.010;2023-05-10T05:38:29;13.80;99.90
16999;DHT22;10211;49.476;11.010;2023-05-10T05:40:56;13.80;99.90
16999;DHT22;10211;49.476;11.010;2023-05-10T05:43:23;13.80;99.90
16999;DHT22;10211;49.476;11.010;2023-05-10T05:45:52;13.90;99.90
16999;DHT22;10211;49.476;11.010;2023-05-10T05:48:20;13.90;99.90
16999;DHT22;10211;49.476;11.010;2023-05-10T05:50:47;13.90;99.90
16999;DHT22;10211;49.476;11.010;2023-05-10T05:53:14;13.80;99.90
16999;DHT22;10211;49.476;11.010;2023-05-10T05:55:46;13.80;99.90
16999;DHT22;10211;49.476;11.010;2023-05-10T05:58:16;13.90;99.90
16999;DHT22;10211;49.476;11.010;2023-05-10T06:00:43;13.90;99.90
16999;DHT22;10211;49.476;11.010;2023-05-10T06:03:10;14.00;99.90
16999;DHT22;10211;49.476;11.010;2023-05-10T06:05:38;14.10;99.90
16999;DHT22;10211;49.476;11.010;2023-05-10T06:08:05;14.10;99.90
16999;DHT22;10211;49.476;11.010;2023-05-10T06:10:31;14.20;99.90
16999;DHT22;10211;49.476;11.010;2023-05-10T06:12:58;14.30;99.90
16999;DHT22;10211;49.476;11.010;2023-05-10T06:15:25;14.40;99.90
16999;DHT22;10211;49.476;11.010;2023-05-10T06:17:51;14.40;99.90
16999;DHT22;10211;49.476;11.010;2023-05-10T06:20:18;14.50;99.90
16999;DHT22;10211;49.476;11.010;2023-05-10T06:22:46;14.60;99.90
16999;DHT22;10211;49.476;11.010;2023-05-10T06:25:13;14.60;99.90
16999;DHT22;10211;49.476;11.010;2023-05-10T06:27:43;14.50;99.90
16999;DHT22;10211;49.476;11.010;2023-05-10T06:30:10;14.60;99.90
16999;DHT22;10211;49.476;11.010;2023-05-10T06:32:38;14.70;99.90
16999;DHT22;10211;49.476;11.010;2023-05-10T06:35:06;14.80;99.90
16999;DHT22;10211;49.476;11.010;2023-05-10T06:37:33;14.80;99.90
16999;DHT22;10211;49.476;11.010;2023-05-10T06:40:02;14.90;99.90
16999;DHT22;10211;49.476;11.010;2023-05-10T06:42:28;15.00;99.90
16999;DHT22;10211;49.476;11.010;2023-05-10T06:44:55;15.20;99.90
16999;DHT22;10211;49.476;11.010;2023-05-10T06:47:22;15.20;99.90
16999;DHT22;10211;49.476;11.010;2023-05-10T06:49:48;15.40;99.90
16999;DHT22;10211;49.476;11.010;2023-05-10T06:52:15;15.60;99.90
16999;DHT22;10211;49.476;11.010;2023-05-10T06:54:42;15.70;99.90
16999;DHT22;10211;49.476;11.010;2023-05-10T06:57:11;15.80;99.90
16999;DHT22;10211;49.476;11.010;2023-05-10T06:59:37;15.80;99.90
16999;DHT22;10211;49.476;11.010;2023-05-10T07:02:04;15.80;99.90
16999;DHT22;10211;49.476;11.010;2023-05-10T07:04:31;15.90;99.90
16999;DHT22;10211;49.476;11.010;2023-05-10T07:06:58;16.00;99.90
16999;DHT22;10211;49.476;11.010;2023-05-10T07:09:24;16.20;99.90
16999;DHT22;10211;49.476;11.010;2023-05-10T07:11:51;16.40;99.90
16999;DHT22;10211;49.476;11.010;2023-05-10T07:14:19;16.40;99.90
16999;DHT22;10211;49.476;11.010;2023-05-10T07:16:46;16.30;99.90
16999;DHT22;10211;49.476;11.010;2023-05-10T07:19:13;16.30;99.90
16999;DHT22;10211;49.476;11.010;2023-05-10T07:21:40;16.20;99.90
16999;DHT22;10211;49.476;11.010;2023-05-10T07:24:08;16.30;99.90
16999;DHT22;10211;49.476;11.010;2023-05-10T07:26:35;16.20;99.90
16999;DHT22;10211;49.476;11.010;2023-05-10T07:29:02;16.10;99.90
16999;DHT22;10211;49.476;11.010;2023-05-10T07:31:30;16.00;99.90
16999;DHT22;10211;49.476;11.010;2023-05-10T07:33:56;15.90;99.90
16999;DHT22;10211;49.476;11.010;2023-05-10T07:36:23;15.70;99.90
16999;DHT22;10211;49.476;11.010;2023-05-10T07:38:50;15.60;99.90
16999;DHT22;10211;49.476;11.010;2023-05-10T07:41:16;15.50;99.90
16999;DHT22;10211;49.476;11.010;2023-05-10T07:43:43;15.60;99.90
16999;DHT22;10211;49.476;11.010;2023-05-10T07:46:10;15.70;99.90
16999;DHT22;10211;49.476;11.010;2023-05-10T07:48:38;15.80;99.90
16999;DHT22;10211;49.476;11.010;2023-05-10T07:51:04;15.70;99.90
16999;DHT22;10211;49.476;11.010;2023-05-10T07:53:34;15.70;99.90
16999;DHT22;10211;49.476;11.010;2023-05-10T07:56:20;15.70;99.90
16999;DHT22;10211;49.476;11.010;2023-05-10T07:58:47;15.70;99.90
16999;DHT22;10211;49.476;11.010;2023-05-10T08:01:14;15.70;99.90
16999;DHT22;10211;49.476;11.010;2023-05-10T08:03:42;15.90;99.90
16999;DHT22;10211;49.476;11.010;2023-05-10T08:06:09;16.10;99.90
16999;DHT22;10211;49.476;11.010;2023-05-10T08:08:36;16.40;99.90
16999;DHT22;10211;49.476;11.010;2023-05-10T08:11:03;16.70;99.90
16999;DHT22;10211;49.476;11.010;2023-05-10T08:13:30;17.00;99.90
16999;DHT22;10211;49.476;11.010;2023-05-10T08:15:57;17.10;99.90
16999;DHT22;10211;49.476;11.010;2023-05-10T08:18:24;17.10;99.90
16999;DHT22;10211;49.476;11.010;2023-05-10T08:20:52;17.00;99.90
16999;DHT22;10211;49.476;11.010;2023-05-10T08:23:18;16.90;99.90
16999;DHT22;10211;49.476;11.010;2023-05-10T08:25:45;16.80;99.90
16999;DHT22;10211;49.476;11.010;2023-05-10T08:28:12;16.70;99.90
16999;DHT22;10211;49.476;11.010;2023-05-10T08:30:38;16.90;99.90
16999;DHT22;10211;49.476;11.010;2023-05-10T08:33:05;17.10;99.90
16999;DHT22;10211;49.476;11.010;2023-05-10T08:35:32;17.60;99.90
16999;DHT22;10211;49.476;11.010;2023-05-10T08:38:01;17.90;99.90
16999;DHT22;10211;49.476;11.010;2023-05-10T08:40:28;18.30;99.90
16999;DHT22;10211;49.476;11.010;2023-05-10T08:42:59;18.50;99.90
16999;DHT22;10211;49.476;11.010;2023-05-10T08:45:31;18.70;99.90
16999;DHT22;10211;49.476;11.010;2023-05-10T08:47:59;18.80;99.90
16999;DHT22;10211;49.476;11.010;2023-05-10T08:50:27;18.80;99.90
16999;DHT22;10211;49.476;11.010;2023-05-10T08:52:59;18.50;99.90
16999;DHT22;10211;49.476;11.010;2023-05-10T08:55:27;18.10;99.90
16999;DHT22;10211;49.476;11.010;2023-05-10T08:57:54;17.80;99.90
16999;DHT22;10211;49.476;11.010;2023-05-10T09:00:21;17.70;99.90
16999;DHT22;10211;49.476;11.010;2023-05-10T09:02:49;17.40;99.90
16999;DHT22;10211;49.476;11.010;2023-05-10T09:05:16;16.80;99.90
16999;DHT22;10211;49.476;11.010;2023-05-10T09:07:43;16.30;99.90
16999;DHT22;10211;49.476;11.010;2023-05-10T09:10:11;15.90;99.90
16999;DHT22;10211;49.476;11.010;2023-05-10T09:12:39;15.70;99.90
16999;DHT22;10211;49.476;11.010;2023-05-10T09:15:07;15.60;99.90
16999;DHT22;10211;49.476;11.010;2023-05-10T09:17:35;15.60;99.90
16999;DHT22;10211;49.476;11.010;2023-05-10T09:20:04;15.70;99.90
16999;DHT22;10211;49.476;11.010;2023-05-10T09:22:31;15.80;99.90
16999;DHT22;10211;49.476;11.010;2023-05-10T09:25:08;15.80;99.90
16999;DHT22;10211;49.476;11.010;2023-05-10T09:27:37;16.00;99.90
16999;DHT22;10211;49.476;11.010;2023-05-10T09:30:07;16.10;99.90
16999;DHT22;10211;49.476;11.010;2023-05-10T09:32:39;16.10;99.90
16999;DHT22;10211;49.476;11.010;2023-05-10T09:35:07;16.20;99.90
16999;DHT22;10211;49.476;11.010;2023-05-10T09:37:34;16.30;99.90
16999;DHT22;10211;49.476;11.010;2023-05-10T09:40:04;16.80;99.90
16999;DHT22;10211;49.476;11.010;2023-05-10T09:42:31;17.70;99.90
16999;DHT22;10211;49.476;11.010;2023-05-10T09:45:01;19.10;99.90
16999;DHT22;10211;49.476;11.010;2023-05-10T09:47:31;21.10;99.90
16999;DHT22;10211;49.476;11.010;2023-05-10T09:49:58;23.70;99.90
16999;DHT22;10211;49.476;11.010;2023-05-10T09:52:29;26.80;90.40
16999;DHT22;10211;49.476;11.010;2023-05-10T09:54:55;28.70;77.50
16999;DHT22;10211;49.476;11.010;2023-05-10T09:57:23;29.30;70.90
16999;DHT22;10211;49.476;11.010;2023-05-10T09:59:51;28.50;71.20
16999;DHT22;10211;49.476;11.010;2023-05-10T10:02:19;27.80;71.70
16999;DHT22;10211;49.476;11.010;2023-05-10T10:04:50;26.80;73.60
16999;DHT22;10211;49.476;11.010;2023-05-10T10:07:22;25.80;73.60
16999;DHT22;10211;49.476;11.010;2023-05-10T10:09:50;27.00;71.00
16999;DHT22;10211;49.476;11.010;2023-05-10T10:12:17;28.50;68.20
16999;DHT22;10211;49.476;11.010;2023-05-10T10:14:45;29.60;63.30
16999;DHT22;10211;49.476;11.010;2023-05-10T10:17:13;29.70;62.90
16999;DHT22;10211;49.476;11.010;2023-05-10T10:19:40;28.70;63.80
16999;DHT22;10211;49.476;11.010;2023-05-10T10:22:09;26.80;66.80
16999;DHT22;10211;49.476;11.010;2023-05-10T10:24:37;26.60;69.80
16999;DHT22;10211;49.476;11.010;2023-05-10T10:27:18;28.40;64.60
16999;DHT22;10211;49.476;11.010;2023-05-10T10:29:52;29.20;62.40
16999;DHT22;10211;49.476;11.010;2023-05-10T10:32:32;29.80;60.40
16999;DHT22;10211;49.476;11.010;2023-05-10T10:35:02;28.00;62.30
16999;DHT22;10211;49.476;11.010;2023-05-10T10:37:44;25.90;65.10
16999;DHT22;10211;49.476;11.010;2023-05-10T10:40:28;23.60;70.20
16999;DHT22;10211;49.476;11.010;2023-05-10T10:42:56;22.20;74.50
16999;DHT22;10211;49.476;11.010;2023-05-10T10:45:24;21.10;79.40
16999;DHT22;10211;49.476;11.010;2023-05-10T10:50:43;19.60;82.10
16999;DHT22;10211;49.476;11.010;2023-05-10T10:53:12;18.90;85.70
16999;DHT22;10211;49.476;11.010;2023-05-10T10:55:46;18.50;88.90
16999;DHT22;10211;49.476;11.010;2023-05-10T10:58:29;18.30;90.60
16999;DHT22;10211;49.476;11.010;2023-05-10T11:01:13;18.20;91.20
16999;DHT22;10211;49.476;11.010;2023-05-10T11:03:40;18.20;91.20
16999;DHT22;10211;49.476;11.010;2023-05-10T11:06:07;18.20;91.30
16999;DHT22;10211;49.476;11.010;2023-05-10T11:08:41;18.10;91.90
16999;DHT22;10211;49.476;11.010;2023-05-10T11:11:09;18.10;92.50
16999;DHT22;10211;49.476;11.010;2023-05-10T11:13:40;18.10;93.00
16999;DHT22;10211;49.476;11.010;2023-05-10T11:16:12;18.10;93.10
16999;DHT22;10211;49.476;11.010;2023-05-10T11:18:39;18.20;93.10
16999;DHT22;10211;49.476;11.010;2023-05-10T11:21:09;18.20;93.40
16999;DHT22;10211;49.476;11.010;2023-05-10T11:23:50;18.10;93.70
16999;DHT22;10211;49.476;11.010;2023-05-10T11:26:18;18.20;94.00
16999;DHT22;10211;49.476;11.010;2023-05-10T11:28:49;18.30;94.10
16999;DHT22;10211;49.476;11.010;2023-05-10T11:31:17;18.60;94.70
16999;DHT22;10211;49.476;11.010;2023-05-10T11:33:44;18.70;93.50
16999;DHT22;10211;49.476;11.010;2023-05-10T11:36:11;18.70;93.20
16999;DHT22;10211;49.476;11.010;2023-05-10T11:38:38;18.70;92.90
16999;DHT22;10211;49.476;11.010;2023-05-10T11:41:08;18.80;93.30
16999;DHT22;10211;49.476;11.010;2023-05-10T11:43:35;18.90;93.00
16999;DHT22;10211;49.476;11.010;2023-05-10T11:46:04;18.90;92.80
16999;DHT22;10211;49.476;11.010;2023-05-10T11:48:31;18.90;93.20
16999;DHT22;10211;49.476;11.010;2023-05-10T11:50:57;19.10;93.70
16999;DHT22;10211;49.476;11.010;2023-05-10T11:53:26;19.20;92.90
16999;DHT22;10211;49.476;11.010;2023-05-10T11:55:53;19.40;92.20
16999;DHT22;10211;49.476;11.010;2023-05-10T11:58:21;19.40;92.60
16999;DHT22;10211;49.476;11.010;2023-05-10T12:00:49;19.30;93.10
16999;DHT22;10211;49.476;11.010;2023-05-10T12:03:16;19.20;93.20
16999;DHT22;10211;49.476;11.010;2023-05-10T12:05:43;19.10;93.00
16999;DHT22;10211;49.476;11.010;2023-05-10T12:08:14;18.90;93.00
16999;DHT22;10211;49.476;11.010;2023-05-10T12:10:41;18.70;93.60
16999;DHT22;10211;49.476;11.010;2023-05-10T12:13:11;18.50;93.30
16999;DHT22;10211;49.476;11.010;2023-05-10T12:15:41;18.30;93.80
16999;DHT22;10211;49.476;11.010;2023-05-10T12:18:08;18.30;93.60
16999;DHT22;10211;49.476;11.010;2023-05-10T12:20:36;18.30;94.00
16999;DHT22;10211;49.476;11.010;2023-05-10T12:23:03;18.40;94.10
16999;DHT22;10211;49.476;11.010;2023-05-10T12:25:32;18.50;93.40
16999;DHT22;10211;49.476;11.010;2023-05-10T12:28:00;18.80;93.80
16999;DHT22;10211;49.476;11.010;2023-05-10T12:30:31;19.10;94.00
16999;DHT22;10211;49.476;11.010;2023-05-10T12:33:07;19.50;93.10
16999;DHT22;10211;49.476;11.010;2023-05-10T12:35:43;20.00;92.50
16999;DHT22;10211;49.476;11.010;2023-05-10T12:38:25;20.50;91.00
16999;DHT22;10211;49.476;11.010;2023-05-10T12:40:52;20.70;91.00
16999;DHT22;10211;49.476;11.010;2023-05-10T12:43:18;20.60;90.90
16999;DHT22;10211;49.476;11.010;2023-05-10T12:45:45;20.50;90.50
16999;DHT22;10211;49.476;11.010;2023-05-10T12:48:15;20.40;91.40
16999;DHT22;10211;49.476;11.010;2023-05-10T12:50:42;20.40;90.50
16999;DHT22;10211;49.476;11.010;2023-05-10T12:53:09;20.30;90.50
16999;DHT22;10211;49.476;11.010;2023-05-10T12:55:35;20.30;90.60
16999;DHT22;10211;49.476;11.010;2023-05-10T12:58:02;20.50;90.10
16999;DHT22;10211;49.476;11.010;2023-05-10T13:00:29;20.50;89.80
16999;DHT22;10211;49.476;11.010;2023-05-10T13:02:56;20.60;90.70
16999;DHT22;10211;49.476;11.010;2023-05-10T13:05:24;20.50;90.40
16999;DHT22;10211;49.476;11.010;2023-05-10T13:07:51;20.10;91.50
16999;DHT22;10211;49.476;11.010;2023-05-10T13:10:18;19.70;93.00
16999;DHT22;10211;49.476;11.010;2023-05-10T13:12:44;19.40;96.30
16999;DHT22;10211;49.476;11.010;2023-05-10T13:15:11;19.10;97.60
16999;DHT22;10211;49.476;11.010;2023-05-10T13:17:38;18.90;99.00
16999;DHT22;10211;49.476;11.010;2023-05-10T13:20:06;18.60;98.10
16999;DHT22;10211;49.476;11.010;2023-05-10T13:22:34;18.30;99.90
16999;DHT22;10211;49.476;11.010;2023-05-10T13:25:02;17.80;99.90
16999;DHT22;10211;49.476;11.010;2023-05-10T13:27:29;17.60;99.90
16999;DHT22;10211;49.476;11.010;2023-05-10T13:29:55;17.30;99.90
16999;DHT22;10211;49.476;11.010;2023-05-10T13:32:24;17.00;99.90
16999;DHT22;10211;49.476;11.010;2023-05-10T13:34:51;16.90;99.90
16999;DHT22;10211;49.476;11.010;2023-05-10T13:37:18;17.00;99.90
16999;DHT22;10211;49.476;11.010;2023-05-10T13:39:46;17.30;99.90
16999;DHT22;10211;49.476;11.010;2023-05-10T13:42:13;17.50;99.90
16999;DHT22;10211;49.476;11.010;2023-05-10T13:44:39;17.80;99.90
16999;DHT22;10211;49.476;11.010;2023-05-10T13:47:06;18.10;99.90
16999;DHT22;10211;49.476;11.010;2023-05-10T13:49:33;18.60;99.90
16999;DHT22;10211;49.476;11.010;2023-05-10T13:52:00;18.80;99.90
16999;DHT22;10211;49.476;11.010;2023-05-10T13:54:31;19.10;99.90
16999;DHT22;10211;49.476;11.010;2023-05-10T13:56:59;19.40;99.90
16999;DHT22;10211;49.476;11.010;2023-05-10T13:59:26;19.40;99.90
16999;DHT22;10211;49.476;11.010;2023-05-10T14:01:52;19.40;99.90
16999;DHT22;10211;49.476;11.010;2023-05-10T14:04:19;19.20;99.90
16999;DHT22;10211;49.476;11.010;2023-05-10T14:06:46;19.10;99.90
16999;DHT22;10211;49.476;11.010;2023-05-10T14:09:13;19.20;99.90
16999;DHT22;10211;49.476;11.010;2023-05-10T14:11:40;19.10;99.90
16999;DHT22;10211;49.476;11.010;2023-05-10T14:14:10;18.80;99.90
16999;DHT22;10211;49.476;11.010;2023-05-10T14:16:37;18.40;99.90
16999;DHT22;10211;49.476;11.010;2023-05-10T14:19:03;18.20;99.90
16999;DHT22;10211;49.476;11.010;2023-05-10T14:21:30;18.00;99.90
16999;DHT22;10211;49.476;11.010;2023-05-10T14:23:57;18.00;99.90
16999;DHT22;10211;49.476;11.010;2023-05-10T14:26:23;18.00;99.90
16999;DHT22;10211;49.476;11.010;2023-05-10T14:28:51;18.00;99.90
16999;DHT22;10211;49.476;11.010;2023-05-10T14:31:19;18.00;99.90
16999;DHT22;10211;49.476;11.010;2023-05-10T14:33:46;18.10;99.90
16999;DHT22;10211;49.476;11.010;2023-05-10T14:36:13;18.20;99.90
16999;DHT22;10211;49.476;11.010;2023-05-10T14:38:40;18.30;99.90
16999;DHT22;10211;49.476;11.010;2023-05-10T14:41:07;18.40;99.90
16999;DHT22;10211;49.476;11.010;2023-05-10T14:43:33;18.40;99.90
16999;DHT22;10211;49.476;11.010;2023-05-10T14:46:02;18.30;99.90
16999;DHT22;10211;49.476;11.010;2023-05-10T14:48:30;18.10;99.90
16999;DHT22;10211;49.476;11.010;2023-05-10T14:50:56;18.20;99.90
16999;DHT22;10211;49.476;11.010;2023-05-10T14:53:23;18.40;99.90
16999;DHT22;10211;49.476;11.010;2023-05-10T14:55:50;18.50;99.90
16999;DHT22;10211;49.476;11.010;2023-05-10T14:58:16;18.40;99.90
16999;DHT22;10211;49.476;11.010;2023-05-10T15:00:43;18.30;99.90
16999;DHT22;10211;49.476;11.010;2023-05-10T15:03:11;18.50;99.90
16999;DHT22;10211;49.476;11.010;2023-05-10T15:05:39;18.40;99.90
16999;DHT22;10211;49.476;11.010;2023-05-10T15:08:06;18.30;99.90
16999;DHT22;10211;49.476;11.010;2023-05-10T15:10:32;17.80;99.90
16999;DHT22;10211;49.476;11.010;2023-05-10T15:12:59;17.30;99.90
16999;DHT22;10211;49.476;11.010;2023-05-10T15:15:26;17.00;99.90
16999;DHT22;10211;49.476;11.010;2023-05-10T15:17:53;16.50;99.90
16999;DHT22;10211;49.476;11.010;2023-05-10T15:20:19;17.00;99.90
16999;DHT22;10211;49.476;11.010;2023-05-10T15:22:47;16.20;99.90
16999;DHT22;10211;49.476;11.010;2023-05-10T15:25:14;16.10;99.90
16999;DHT22;10211;49.476;11.010;2023-05-10T15:27:41;16.00;99.90